createdAt,value
2023-04-15T00:01:20.022Z,8.57
2023-04-15T00:03:48.633Z,8.58
2023-04-15T00:06:16.924Z,8.56
2023-04-15T00:08:45.548Z,8.56
2023-04-15T00:11:14.118Z,8.52
2023-04-15T00:13:42.768Z,8.50
2023-04-15T00:16:12.065Z,8.53
2023-04-15T00:18:41.539Z,8.48
2023-04-15T00:21:09.718Z,8.51
2023-04-15T00:23:37.802Z,8.49
2023-04-15T00:26:05.766Z,8.50
2023-04-15T00:28:33.853Z,8.46
2023-04-15T00:31:01.987Z,8.47
2023-04-15T00:33:29.926Z,8.46
2023-04-15T00:35:58.010Z,8.46
2023-04-15T00:38:26.181Z,8.50
2023-04-15T00:40:56.565Z,8.46
2023-04-15T00:43:25.965Z,8.46
2023-04-15T00:45:57.616Z,8.45
2023-04-15T00:48:26.304Z,8.43
2023-04-15T00:50:54.306Z,8.43
2023-04-15T00:53:22.557Z,8.45
2023-04-15T00:55:51.450Z,8.43
2023-04-15T00:58:19.515Z,8.42
2023-04-15T01:00:48.156Z,8.43
2023-04-15T01:03:16.341Z,8.41
2023-04-15T01:05:44.334Z,8.40
2023-04-15T01:08:12.646Z,8.40
2023-04-15T01:10:41.912Z,8.38
2023-04-15T01:13:09.826Z,8.40
2023-04-15T01:15:38.097Z,8.39
2023-04-15T01:18:07.580Z,8.37
2023-04-15T01:20:36.591Z,8.33
2023-04-15T01:23:04.640Z,8.34
2023-04-15T01:25:35.794Z,8.38
2023-04-15T01:28:03.934Z,8.36
2023-04-15T01:30:36.653Z,8.36
2023-04-15T01:33:04.590Z,8.36
2023-04-15T01:35:32.427Z,8.38
2023-04-15T01:38:07.733Z,8.37
2023-04-15T01:40:35.948Z,8.36
2023-04-15T01:43:04.159Z,8.33
2023-04-15T01:45:32.493Z,8.34
2023-04-15T01:48:00.895Z,8.36
2023-04-15T01:50:28.909Z,8.34
2023-04-15T01:52:57.429Z,8.32
2023-04-15T01:55:26.251Z,8.35
2023-04-15T01:57:54.423Z,8.29
2023-04-15T02:00:23.471Z,8.31
2023-04-15T02:02:53.446Z,8.29
2023-04-15T02:05:21.537Z,8.30
2023-04-15T02:07:49.872Z,8.31
2023-04-15T02:10:18.006Z,8.31
2023-04-15T02:12:45.921Z,8.31
2023-04-15T02:15:13.978Z,8.32
2023-04-15T02:17:46.125Z,8.33
2023-04-15T02:20:17.112Z,8.33
2023-04-15T02:22:45.506Z,8.34
2023-04-15T02:25:20.441Z,8.34
2023-04-15T02:27:48.491Z,8.35
2023-04-15T02:30:18.278Z,8.35
2023-04-15T02:32:46.760Z,8.36
2023-04-15T02:35:14.765Z,8.35
2023-04-15T02:37:45.925Z,8.36
2023-04-15T02:40:14.506Z,8.37
2023-04-15T02:42:44.356Z,8.37
2023-04-15T02:45:14.588Z,8.38
2023-04-15T02:47:44.586Z,8.37
2023-04-15T02:50:13.512Z,8.38
2023-04-15T02:52:43.531Z,8.36
2023-04-15T02:55:13.104Z,8.37
2023-04-15T02:57:41.531Z,8.38
2023-04-15T03:00:12.244Z,8.36
2023-04-15T03:02:47.120Z,8.39
2023-04-15T03:05:15.570Z,8.40
2023-04-15T03:07:49.428Z,8.39
2023-04-15T03:10:17.824Z,8.38
2023-04-15T03:12:47.593Z,8.37
2023-04-15T03:15:19.550Z,8.39
2023-04-15T03:17:51.161Z,8.36
2023-04-15T03:20:19.862Z,8.38
2023-04-15T03:22:49.556Z,8.38
2023-04-15T03:25:17.691Z,8.38
2023-04-15T03:27:45.616Z,8.40
2023-04-15T03:30:15.200Z,8.39
2023-04-15T03:32:43.179Z,8.40
2023-04-15T03:35:11.284Z,8.39
2023-04-15T03:37:39.440Z,8.47
2023-04-15T03:40:08.792Z,8.45
2023-04-15T03:42:36.706Z,8.45
2023-04-15T03:45:06.030Z,8.47
2023-04-15T03:47:33.973Z,8.49
2023-04-15T03:50:01.914Z,8.52
2023-04-15T03:52:30.106Z,8.49
2023-04-15T03:54:57.931Z,8.48
2023-04-15T03:57:25.798Z,8.49
2023-04-15T03:59:53.916Z,8.52
2023-04-15T04:02:23.225Z,8.54
2023-04-15T04:04:51.416Z,8.51
2023-04-15T04:07:19.516Z,8.51
2023-04-15T04:09:47.531Z,8.51
2023-04-15T04:12:15.729Z,8.55
2023-04-15T04:14:43.947Z,8.56
2023-04-15T04:17:11.900Z,8.49
2023-04-15T04:19:39.785Z,8.50
2023-04-15T04:22:08.586Z,8.51
2023-04-15T04:24:36.576Z,8.52
2023-04-15T04:27:04.521Z,8.50
2023-04-15T04:29:32.868Z,8.50
2023-04-15T04:32:01.285Z,8.50
2023-04-15T04:34:29.383Z,8.50
2023-04-15T04:36:57.567Z,8.51
2023-04-15T04:39:25.477Z,8.53
2023-04-15T04:41:53.384Z,8.55
2023-04-15T04:44:22.407Z,8.59
2023-04-15T04:46:50.355Z,8.58
2023-04-15T04:49:18.307Z,8.59
2023-04-15T04:51:47.342Z,8.54
2023-04-15T04:54:15.312Z,8.55
2023-04-15T04:56:43.628Z,8.54
2023-04-15T04:59:11.586Z,8.53
2023-04-15T05:01:39.525Z,8.54
2023-04-15T05:04:07.977Z,8.53
2023-04-15T05:06:37.128Z,8.54
2023-04-15T05:09:05.031Z,8.55
2023-04-15T05:11:33.520Z,8.55
2023-04-15T05:14:02.569Z,8.59
2023-04-15T05:16:30.645Z,8.53
2023-04-15T05:18:58.682Z,8.57
2023-04-15T05:21:27.722Z,8.55
2023-04-15T05:23:56.954Z,8.56
2023-04-15T05:26:25.167Z,8.57
2023-04-15T05:28:54.090Z,8.57
2023-04-15T05:31:22.553Z,8.53
2023-04-15T05:33:52.344Z,8.54
2023-04-15T05:36:20.503Z,8.57
2023-04-15T05:38:48.497Z,8.58
2023-04-15T05:41:19.594Z,8.55
2023-04-15T05:43:48.295Z,8.54
2023-04-15T05:46:17.397Z,8.55
2023-04-15T05:48:45.625Z,8.58
2023-04-15T05:51:13.871Z,8.60
2023-04-15T05:53:41.952Z,8.59
2023-04-15T05:56:09.832Z,8.64
2023-04-15T05:58:38.789Z,8.63
2023-04-15T06:01:07.384Z,8.68
2023-04-15T06:03:35.873Z,8.75
2023-04-15T06:06:04.385Z,8.75
2023-04-15T06:08:32.421Z,8.83
2023-04-15T06:11:00.560Z,8.82
2023-04-15T06:13:29.368Z,8.81
2023-04-15T06:15:57.278Z,8.97
2023-04-15T06:18:25.236Z,9.03
2023-04-15T06:20:53.494Z,9.01
2023-04-15T06:23:21.407Z,9.07
2023-04-15T06:25:49.562Z,9.09
2023-04-15T06:28:18.102Z,9.11
2023-04-15T06:30:46.014Z,9.09
2023-04-15T06:33:14.010Z,9.09
2023-04-15T06:35:42.358Z,9.07
2023-04-15T06:38:10.655Z,9.11
2023-04-15T06:40:38.611Z,9.14
2023-04-15T06:43:07.248Z,9.15
2023-04-15T06:45:35.543Z,9.21
2023-04-15T06:48:03.530Z,9.24
2023-04-15T06:50:31.756Z,9.22
2023-04-15T06:52:59.840Z,9.25
2023-04-15T06:55:27.740Z,9.21
2023-04-15T06:57:55.758Z,9.20
2023-04-15T07:00:23.892Z,9.31
2023-04-15T07:02:52.071Z,9.26
2023-04-15T07:05:20.588Z,9.23
2023-04-15T07:07:48.582Z,9.26
2023-04-15T07:10:16.467Z,9.19
2023-04-15T07:12:44.805Z,9.17
2023-04-15T07:15:12.803Z,9.13
2023-04-15T07:17:43.413Z,9.19
2023-04-15T07:20:13.069Z,9.14
2023-04-15T07:22:41.238Z,9.15
2023-04-15T07:25:09.797Z,9.27
2023-04-15T07:27:38.082Z,9.28
2023-04-15T07:30:07.296Z,9.34
2023-04-15T07:32:35.188Z,9.41
2023-04-15T07:35:04.084Z,9.37
2023-04-15T07:37:32.334Z,9.40
2023-04-15T07:40:00.245Z,9.39
2023-04-15T07:42:29.457Z,9.39
2023-04-15T07:44:57.993Z,9.48
2023-04-15T07:47:26.059Z,9.41
2023-04-15T07:49:54.161Z,9.29
2023-04-15T07:52:22.433Z,9.46
2023-04-15T07:54:54.155Z,9.50
2023-04-15T07:57:22.490Z,9.57
2023-04-15T07:59:50.781Z,9.52
2023-04-15T08:02:18.945Z,9.55
2023-04-15T08:04:47.351Z,9.54
2023-04-15T08:07:16.261Z,9.60
2023-04-15T08:09:44.572Z,9.81
2023-04-15T08:12:13.714Z,9.69
2023-04-15T08:14:41.950Z,9.83
2023-04-15T08:17:10.046Z,9.74
2023-04-15T08:19:39.528Z,9.64
2023-04-15T08:22:10.433Z,9.67
2023-04-15T08:24:44.309Z,9.67
2023-04-15T08:27:12.245Z,9.66
2023-04-15T08:29:40.786Z,9.57
2023-04-15T08:32:09.823Z,9.59
2023-04-15T08:34:37.887Z,9.69
2023-04-15T08:37:06.579Z,9.66
2023-04-15T08:49:22.753Z,9.53
2023-04-15T08:51:50.629Z,9.64
2023-04-15T08:54:19.602Z,9.53
2023-04-15T08:56:49.031Z,9.44
2023-04-15T08:59:18.172Z,9.47
2023-04-15T09:01:46.651Z,9.46
2023-04-15T09:04:15.080Z,9.63
2023-04-15T09:06:43.318Z,9.71
2023-04-15T09:09:14.593Z,9.64
2023-04-15T09:11:43.405Z,9.64
2023-04-15T09:14:11.512Z,9.69
2023-04-15T09:17:02.919Z,9.66
2023-04-15T09:19:33.636Z,9.64
2023-04-15T09:22:02.859Z,9.72
2023-04-15T09:24:41.387Z,9.78
2023-04-15T09:27:09.561Z,9.78
2023-04-15T09:29:37.855Z,9.88
2023-04-15T09:32:12.508Z,9.95
2023-04-15T09:34:40.696Z,9.98
2023-04-15T09:37:11.140Z,10.10
2023-04-15T09:39:53.071Z,10.29
2023-04-15T09:42:24.747Z,10.24
2023-04-15T09:44:56.143Z,10.27
2023-04-15T09:47:34.925Z,10.42
2023-04-15T09:50:03.711Z,10.94
2023-04-15T09:52:32.201Z,10.98
2023-04-15T09:55:01.194Z,11.31
2023-04-15T09:57:37.709Z,11.87
2023-04-15T10:00:11.663Z,11.76
2023-04-15T10:02:42.697Z,11.64
2023-04-15T10:05:17.599Z,11.91
2023-04-15T10:07:46.800Z,12.50
2023-04-15T10:10:15.626Z,12.48
2023-04-15T10:12:45.568Z,12.74
2023-04-15T10:15:20.053Z,12.68
2023-04-15T10:17:51.481Z,12.70
2023-04-15T10:20:21.040Z,12.75
2023-04-15T10:22:49.753Z,12.83
2023-04-15T10:25:18.748Z,12.82
2023-04-15T10:27:48.874Z,12.68
2023-04-15T10:30:17.664Z,13.03
2023-04-15T10:32:46.158Z,13.05
2023-04-15T10:35:14.821Z,13.46
2023-04-15T10:37:42.820Z,13.97
2023-04-15T10:40:35.699Z,14.02
2023-04-15T10:43:04.133Z,13.69
2023-04-15T10:45:38.085Z,13.67
2023-04-15T10:48:09.324Z,13.71
2023-04-15T10:50:38.078Z,13.73
2023-04-15T10:53:06.410Z,13.60
2023-04-15T10:55:35.405Z,13.86
2023-04-15T10:58:04.021Z,13.68
2023-04-15T11:00:35.519Z,14.12
2023-04-15T11:03:10.000Z,14.05
2023-04-15T11:05:54.475Z,13.88
2023-04-15T11:08:56.517Z,13.76
2023-04-15T11:11:46.400Z,13.85
2023-04-15T11:14:17.745Z,13.91
2023-04-15T11:16:45.867Z,13.53
2023-04-15T11:19:14.171Z,13.25
2023-04-15T11:21:42.309Z,13.10
2023-04-15T11:24:10.209Z,13.09
2023-04-15T11:26:38.504Z,13.25
2023-04-15T11:29:06.686Z,13.55
2023-04-15T11:31:34.654Z,13.72
2023-04-15T11:34:03.614Z,13.70
2023-04-15T11:36:34.526Z,14.24
2023-04-15T11:39:02.678Z,14.46
2023-04-15T11:41:31.009Z,14.84
2023-04-15T11:43:59.325Z,14.77
2023-04-15T11:46:32.251Z,14.58
2023-04-15T11:49:00.607Z,15.04
2023-04-15T11:51:34.498Z,15.01
2023-04-15T11:54:04.075Z,14.92
2023-04-15T11:56:32.295Z,15.55
2023-04-15T11:59:00.410Z,15.54
2023-04-15T12:01:33.660Z,15.12
2023-04-15T12:04:04.064Z,15.28
2023-04-15T12:06:37.495Z,15.29
2023-04-15T12:09:11.134Z,15.05
2023-04-15T12:11:54.079Z,15.18
2023-04-15T12:14:27.548Z,15.20
2023-04-15T12:17:03.596Z,14.85
2023-04-15T12:19:42.176Z,15.03
2023-04-15T12:22:15.928Z,15.55
2023-04-15T12:24:48.167Z,15.12
2023-04-15T12:27:17.568Z,14.99
2023-04-15T12:29:45.812Z,15.37
2023-04-15T12:32:21.139Z,15.24
2023-04-15T12:34:54.614Z,14.48
2023-04-15T12:37:23.266Z,14.26
2023-04-15T12:39:52.482Z,14.52
2023-04-15T12:42:21.131Z,14.54
2023-04-15T12:44:49.319Z,14.58
2023-04-15T12:47:17.428Z,14.03
2023-04-15T12:49:45.881Z,14.03
2023-04-15T12:52:13.999Z,13.79
2023-04-15T12:54:41.954Z,14.45
2023-04-15T12:57:10.197Z,15.05
2023-04-15T12:59:39.006Z,14.78
2023-04-15T13:02:07.447Z,15.34
2023-04-15T13:04:35.782Z,15.38
2023-04-15T13:07:04.116Z,14.96
2023-04-15T13:09:32.608Z,14.71
2023-04-15T13:12:01.546Z,14.62
2023-04-15T13:14:29.999Z,15.87
2023-04-15T13:16:58.355Z,16.01
2023-04-15T13:19:26.914Z,15.63
2023-04-15T13:21:55.388Z,15.55
2023-04-15T13:24:23.433Z,15.62
2023-04-15T13:26:52.277Z,16.27
2023-04-15T13:29:21.051Z,15.34
2023-04-15T13:31:49.160Z,15.42
2023-04-15T13:34:17.594Z,15.95
2023-04-15T13:36:46.598Z,15.95
2023-04-15T13:39:16.468Z,15.66
2023-04-15T13:41:45.088Z,15.58
2023-04-15T13:44:13.827Z,15.19
2023-04-15T13:46:42.790Z,14.91
2023-04-15T13:49:11.040Z,15.03
2023-04-15T13:51:39.073Z,14.56
2023-04-15T13:54:07.199Z,14.45
2023-04-15T13:56:35.465Z,14.31
2023-04-15T13:59:03.753Z,14.25
2023-04-15T14:01:31.690Z,14.47
2023-04-15T14:03:59.808Z,14.69
2023-04-15T14:06:28.979Z,14.63
2023-04-15T14:08:57.224Z,14.56
2023-04-15T14:11:25.325Z,14.22
2023-04-15T14:13:54.095Z,13.93
2023-04-15T14:16:22.304Z,13.77
2023-04-15T14:18:50.314Z,14.30
2023-04-15T14:21:18.565Z,14.38
2023-04-15T14:23:46.742Z,14.22
2023-04-15T14:26:14.737Z,14.08
2023-04-15T14:28:45.173Z,14.44
2023-04-15T14:31:14.286Z,15.00
2023-04-15T14:33:42.924Z,15.54
2023-04-15T14:36:11.756Z,15.62
2023-04-15T14:38:40.247Z,14.67
2023-04-15T14:41:08.701Z,14.36
2023-04-15T14:43:37.520Z,14.02
2023-04-15T14:46:05.920Z,14.08
2023-04-15T14:48:33.979Z,13.91
2023-04-15T14:51:02.417Z,13.89
2023-04-15T14:53:30.576Z,13.91
2023-04-15T14:55:58.770Z,14.11
2023-04-15T14:58:26.914Z,14.36
2023-04-15T15:00:54.965Z,14.50
2023-04-15T15:03:23.665Z,14.47
2023-04-15T15:05:52.120Z,14.42
2023-04-15T15:08:20.159Z,14.48
2023-04-15T15:10:49.927Z,14.40
2023-04-15T15:13:19.629Z,14.01
2023-04-15T15:15:49.806Z,13.76
2023-04-15T15:18:19.608Z,13.80
2023-04-15T15:20:48.481Z,13.58
2023-04-15T15:23:16.836Z,13.45
2023-04-15T15:25:46.670Z,13.48
2023-04-15T15:28:15.261Z,13.54
2023-04-15T15:30:43.246Z,13.85
2023-04-15T15:33:11.483Z,13.69
2023-04-15T15:35:41.750Z,13.67
2023-04-15T15:38:12.773Z,13.83
2023-04-15T15:40:40.761Z,13.49
2023-04-15T15:43:08.981Z,13.37
2023-04-15T15:45:37.356Z,13.29
2023-04-15T15:48:06.131Z,13.28
2023-04-15T15:50:34.963Z,13.06
2023-04-15T15:53:03.150Z,12.71
2023-04-15T15:55:31.395Z,12.70
2023-04-15T15:57:59.572Z,12.55
2023-04-15T16:00:27.468Z,12.44
2023-04-15T16:05:30.021Z,12.07
2023-04-15T16:07:57.858Z,12.18
2023-04-15T16:10:26.087Z,12.24
2023-04-15T16:12:54.519Z,12.34
2023-04-15T16:15:25.744Z,12.53
2023-04-15T16:17:53.841Z,12.44
2023-04-15T16:20:21.903Z,12.47
2023-04-15T16:22:49.958Z,12.37
2023-04-15T16:25:18.178Z,12.19
2023-04-15T16:27:58.838Z,12.03
2023-04-15T16:30:30.205Z,12.06
2023-04-15T16:32:58.424Z,11.80
2023-04-15T16:35:27.272Z,11.80
2023-04-15T16:37:55.582Z,11.48
2023-04-15T16:40:25.741Z,11.45
2023-04-15T16:42:53.689Z,11.40
2023-04-15T16:45:21.907Z,11.56
2023-04-15T16:47:50.286Z,11.54
2023-04-15T16:50:18.576Z,11.40
2023-04-15T16:52:47.122Z,11.14
2023-04-15T16:55:15.213Z,11.01
2023-04-15T16:58:00.416Z,10.82
2023-04-15T17:00:32.467Z,10.79
2023-04-15T17:03:06.129Z,10.66
2023-04-15T17:05:34.652Z,10.66
2023-04-15T17:08:02.548Z,10.56
2023-04-15T17:10:31.249Z,10.50
2023-04-15T17:13:00.999Z,10.42
2023-04-15T17:15:28.930Z,10.38
2023-04-15T17:17:56.855Z,10.36
2023-04-15T17:20:25.004Z,10.43
2023-04-15T17:22:52.948Z,10.33
2023-04-15T17:25:21.116Z,10.24
2023-04-15T17:27:49.395Z,10.14
2023-04-15T17:30:17.394Z,10.14
2023-04-15T17:32:45.697Z,10.13
2023-04-15T17:35:14.152Z,10.08
2023-04-15T17:37:42.178Z,10.02
2023-04-15T17:40:11.475Z,9.99
2023-04-15T17:42:41.217Z,9.98
2023-04-15T17:45:09.955Z,10.01
2023-04-15T17:47:38.229Z,9.86
2023-04-15T17:50:07.767Z,9.84
2023-04-15T17:52:36.133Z,9.77
2023-04-15T17:55:04.715Z,9.70
2023-04-15T17:57:33.152Z,9.62
2023-04-15T18:00:01.349Z,9.56
2023-04-15T18:02:30.995Z,9.49
2023-04-15T18:04:59.812Z,9.46
2023-04-15T18:07:27.957Z,9.46
2023-04-15T18:09:56.317Z,9.43
2023-04-15T18:12:24.519Z,9.39
2023-04-15T18:14:52.869Z,9.36
2023-04-15T18:17:21.140Z,9.29
2023-04-15T18:19:49.296Z,9.29
2023-04-15T18:22:18.582Z,9.26
2023-04-15T18:24:46.829Z,9.18
2023-04-15T18:27:15.246Z,9.14
2023-04-15T18:29:43.841Z,9.06
2023-04-15T18:32:12.067Z,9.03
2023-04-15T18:34:40.407Z,9.02
2023-04-15T18:37:08.405Z,8.97
2023-04-15T18:39:36.527Z,8.99
2023-04-15T18:42:04.861Z,8.98
2023-04-15T18:44:33.070Z,8.95
2023-04-15T18:47:01.778Z,8.92
2023-04-15T18:49:33.440Z,8.87
2023-04-15T18:52:02.248Z,8.82
2023-04-15T18:54:30.110Z,8.78
2023-04-15T18:56:59.483Z,8.74
2023-04-15T18:59:30.189Z,8.77
2023-04-15T19:02:03.698Z,8.74
2023-04-15T19:04:34.768Z,8.68
2023-04-15T19:07:08.873Z,8.62
2023-04-15T19:09:37.362Z,8.58
2023-04-15T19:12:05.589Z,8.50
2023-04-15T19:14:33.899Z,8.42
2023-04-15T19:17:02.568Z,8.40
2023-04-15T19:19:30.636Z,8.35
2023-04-15T19:21:59.498Z,8.33
2023-04-15T19:24:28.167Z,8.20
2023-04-15T19:26:57.741Z,8.13
2023-04-15T19:29:26.200Z,8.16
2023-04-15T19:31:54.686Z,8.08
2023-04-15T19:34:22.806Z,8.17
2023-04-15T19:36:54.109Z,8.13
2023-04-15T19:39:22.253Z,8.14
2023-04-15T19:41:53.537Z,8.11
2023-04-15T19:44:23.518Z,8.02
2023-04-15T19:46:55.324Z,8.05
2023-04-15T19:49:25.923Z,8.03
2023-04-15T19:51:53.784Z,8.05
2023-04-15T19:54:21.864Z,8.03
2023-04-15T19:56:50.061Z,8.03
2023-04-15T19:59:18.044Z,8.03
2023-04-15T20:01:46.397Z,8.06
2023-04-15T20:04:16.102Z,8.04
2023-04-15T20:06:44.085Z,8.02
2023-04-15T20:09:12.260Z,8.01
2023-04-15T20:12:48.353Z,7.99
2023-04-15T20:14:28.519Z,7.97
2023-04-15T20:16:56.477Z,7.91
2023-04-15T20:19:24.452Z,7.87
2023-04-15T20:21:54.074Z,7.89
2023-04-15T20:24:24.300Z,7.82
2023-04-15T20:26:52.307Z,7.77
2023-04-15T20:29:20.732Z,7.74
2023-04-15T20:31:48.719Z,7.73
2023-04-15T20:34:17.042Z,7.73
2023-04-15T20:36:45.016Z,7.72
2023-04-15T20:39:13.377Z,7.76
2023-04-15T20:41:42.364Z,7.82
2023-04-15T20:44:10.330Z,7.87
2023-04-15T20:46:38.466Z,7.88
2023-04-15T20:49:07.114Z,7.83
2023-04-15T20:51:37.869Z,7.86
2023-04-15T20:54:06.813Z,7.71
2023-04-15T20:56:35.163Z,7.65
2023-04-15T20:59:03.266Z,7.68
2023-04-15T21:01:31.489Z,7.58
2023-04-15T21:03:59.855Z,7.45
2023-04-15T21:06:27.789Z,7.45
2023-04-15T21:08:56.292Z,7.40
2023-04-15T21:11:42.997Z,7.42
2023-04-15T21:14:12.405Z,7.49
2023-04-15T21:16:41.266Z,7.63
2023-04-15T21:19:10.352Z,7.75
2023-04-15T21:21:38.350Z,7.83
2023-04-15T21:24:09.829Z,7.91
2023-04-15T21:26:38.093Z,8.00
2023-04-15T21:29:08.571Z,7.99
2023-04-15T21:31:38.851Z,8.06
2023-04-15T21:34:07.404Z,8.09
2023-04-15T21:36:35.677Z,8.13
2023-04-15T21:39:04.366Z,8.16
2023-04-15T21:41:32.919Z,8.22
2023-04-15T21:44:00.914Z,8.24
2023-04-15T21:46:32.822Z,8.24
2023-04-15T21:49:03.676Z,8.25
2023-04-15T21:51:32.785Z,8.24
2023-04-15T21:54:00.897Z,8.24
2023-04-15T21:56:28.928Z,8.25
2023-04-15T21:58:58.384Z,8.23
2023-04-15T22:01:27.493Z,8.27
2023-04-15T22:03:56.354Z,8.27
2023-04-15T22:06:25.694Z,8.24
2023-04-15T22:08:57.426Z,8.21
2023-04-15T22:11:31.158Z,8.18
2023-04-15T22:13:59.732Z,8.15
2023-04-15T22:16:28.505Z,8.07
2023-04-15T22:18:56.933Z,8.06
2023-04-15T22:21:24.974Z,8.08
2023-04-15T22:24:39.161Z,8.09
2023-04-15T22:26:41.831Z,8.06
2023-04-15T22:29:10.917Z,8.07
2023-04-15T22:31:39.142Z,8.15
2023-04-15T22:34:07.315Z,8.20
2023-04-15T22:36:35.562Z,8.23
2023-04-15T22:39:03.661Z,8.29
2023-04-15T22:41:32.022Z,8.29
2023-04-15T22:44:00.159Z,8.19
2023-04-15T22:46:28.067Z,8.20
2023-04-15T22:48:56.329Z,8.17
2023-04-15T22:51:28.024Z,8.15
2023-04-15T22:53:56.416Z,8.11
2023-04-15T22:56:24.350Z,8.16
2023-04-15T22:58:52.606Z,8.13
2023-04-15T23:01:21.189Z,8.15
2023-04-15T23:03:56.668Z,8.10
2023-04-15T23:06:30.334Z,8.08
2023-04-15T23:08:58.441Z,8.08
2023-04-15T23:11:26.568Z,8.09
2023-04-15T23:13:55.342Z,8.03
2023-04-15T23:16:23.810Z,7.97
2023-04-15T23:18:51.827Z,7.92
2023-04-15T23:21:20.082Z,7.88
2023-04-15T23:23:48.200Z,7.77
2023-04-15T23:26:16.060Z,7.73
2023-04-15T23:28:44.358Z,7.77
2023-04-15T23:31:12.476Z,7.75
2023-04-15T23:33:40.440Z,7.77
2023-04-15T23:36:08.673Z,7.78
2023-04-15T23:38:36.747Z,7.80
2023-04-15T23:41:04.943Z,7.75
2023-04-15T23:43:33.319Z,7.68
2023-04-15T23:46:01.419Z,7.64
2023-04-15T23:48:30.278Z,7.64
2023-04-15T23:50:58.489Z,7.70
2023-04-15T23:53:26.417Z,7.72
2023-04-15T23:55:54.231Z,7.80
2023-04-15T23:58:23.116Z,7.76
